ADDS METAR Data INFO
IDs: Format: Raw Decoded Include TAF

Data at: 1357 UTC 17 Dec 2017

KBWG 171353Z AUTO 16005KT 10SM BKN080 OVC090 06/00 A3022 RMK AO2 SLP234 T00610000
KBWG 171253Z AUTO 13003KT 10SM OVC100 06/00 A3022 RMK AO2 RAB30E39 SLP234 P0000 T00560000
KBWG 171153Z AUTO 25003KT 10SM OVC100 06/00 A3024 RMK AO2 SLP242 T00560000 10061 20039 53014
KBWG 171053Z AUTO 00000KT 10SM OVC110 05/00 A3018 RMK AO2 SLP221 T00500000
KBWG 170953Z AUTO 00000KT 10SM CLR 05/00 A3018 RMK AO2 PRESFR SLP221 T00500000
KBWG 170853Z AUTO 11003KT 10SM CLR 05/00 A3020 RMK AO2 SLP227 T00500000 58006
KBWG 170753Z AUTO 20003KT 10SM CLR 06/M01 A3021 RMK AO2 SLP231 T00561006
KBWG 170653Z AUTO 19005KT 10SM CLR 05/M01 A3022 RMK AO2 SLP233 T00501006
KBWG 170553Z AUTO 19003KT 10SM CLR 05/M01 A3022 RMK AO2 SLP232 T00501006 10072 20050 401171011 50002
KBWG 170453Z AUTO 19006KT 10SM CLR 06/M01 A3023 RMK AO2 SLP238 T00611006
KBWG 170353Z AUTO 20007KT 10SM CLR 06/M01 A3022 RMK AO2 SLP233 T00611006
KBWG 170253Z AUTO 18006KT 10SM CLR 06/M01 A3021 RMK AO2 SLP232 T00561006 51007
KBWG 170153Z AUTO 18006KT 10SM CLR 06/M01 A3020 RMK AO2 SLP231 T00611011
KBWG 170053Z AUTO 19007KT 10SM CLR 07/M01 A3020 RMK AO2 SLP228 T00671011
KBWG 162353Z AUTO 19006KT 10SM CLR 07/M01 A3019 RMK AO2 SLP226 T00671011 10117 20067 53015
KBWG 162253Z AUTO 17005KT 10SM CLR 08/M01 A3017 RMK AO2 SLP218 T00781011
KBWG 162153Z AUTO 21006KT 10SM CLR 10/M02 A3015 RMK AO2 SLP214 T01001017
KBWG 162053Z AUTO 21010KT 10SM CLR 11/M01 A3014 RMK AO2 SLP209 T01111011 56015
KBWG 161953Z AUTO 21014G22KT 10SM CLR 11/M01 A3015 RMK AO2 PK WND 22027/1900 SLP211 T01111011
KBWG 161853Z AUTO 22019G27KT 10SM CLR 11/M01 A3017 RMK AO2 PK WND 20027/1853 SLP216 T01111006
KBWG 161753Z AUTO 22011G20KT 10SM CLR 10/M01 A3019 RMK AO2 SLP224 T01001006 10100 21011 58007
KBWG 161653Z AUTO 21012G20KT 10SM CLR 08/M01 A3022 RMK AO2 SLP235 T00831006
KBWG 161553Z AUTO 21010G19KT 10SM CLR 06/M01 A3022 RMK AO2 SLP236 T00561011
KBWG 161453Z AUTO 21012KT 10SM CLR 03/M02 A3021 RMK AO2 SLP232 T00331022 51006
KBWG 161353Z AUTO 19009KT 10SM CLR 01/M03 A3020 RMK AO2 SLP230 T00061028
KBWG 161253Z AUTO 20006KT 10SM CLR M01/M04 A3020 RMK AO2 SLP231 T10061039
KBWG 161153Z AUTO 19005KT 10SM CLR M01/M04 A3019 RMK AO2 SLP226 T10111039 10006 21011 55001
KBWG 161053Z AUTO 21003KT 10SM CLR M01/M04 A3018 RMK AO2 SLP224 T10061039
KBWG 160953Z AUTO 20006KT 10SM CLR M01/M04 A3018 RMK AO2 SLP225 T10061039
KBWG 160853Z AUTO 19007KT 10SM CLR 00/M04 A3019 RMK AO2 SLP227 T00001039 50002
KBWG 160753Z AUTO 19006KT 10SM CLR 00/M04 A3019 RMK AO2 SLP227 T00001039
KBWG 160653Z AUTO 19008KT 10SM CLR 01/M04 A3019 RMK AO2 SLP226 T00061039
KBWG 160553Z AUTO 20007KT 10SM CLR 00/M04 A3019 RMK AO2 SLP226 T00001044 10039 20000 400501006 51005
KBWG 160453Z AUTO 20005KT 10SM CLR 01/M05 A3019 RMK AO2 SLP226 T00061050
KBWG 160353Z AUTO 20006KT 10SM CLR 01/M05 A3018 RMK AO2 SLP223 T00111050
KBWG 160253Z AUTO 21007KT 10SM BKN055 03/M05 A3017 RMK AO2 SLP220 T00281050 53005